Time;durP1;ratioP1;P1;durP2;ratioP2;P2;SDS_P1;SDS_P2;PMS_P1;PMS_P2;Temp;Humidity;BMP_temperature;BMP_pressure;BME280_temperature;BME280_humidity;BME280_pressure;Samples;Min_cycle;Max_cycle;Signal;HPM_P1;HPM_P2
2022/07/25 00:00:24;;;;;;;;;13.75;13.25;;;;;25.07;51.95;100521.28;5072618;28;45453;-84
2022/07/25 00:02:49;;;;;;;;;14.50;13.50;;;;;25.01;52.34;100515.19;5073736;27;45822;-84
2022/07/25 00:05:14;;;;;;;;;14.50;13.25;;;;;25.01;52.14;100509.81;5074221;27;47900;-84
2022/07/25 00:07:40;;;;;;;;;14.00;14.00;;;;;24.99;52.52;100503.59;5073750;27;46197;-84
2022/07/25 00:10:06;;;;;;;;;15.50;15.00;;;;;25.07;52.44;100515.91;5073891;27;45357;-83
2022/07/25 00:12:31;;;;;;;;;15.00;14.00;;;;;24.94;52.27;100496.53;5073889;27;45369;-83
2022/07/25 00:14:57;;;;;;;;;16.00;15.25;;;;;24.94;53.00;100503.72;5073889;27;45351;-85
2022/07/25 00:17:22;;;;;;;;;15.00;15.00;;;;;24.80;52.31;100490.66;5073276;28;45317;-83
2022/07/25 00:19:47;;;;;;;;;11.50;11.25;;;;;24.73;52.55;100472.97;5073579;28;45444;-83
2022/07/25 00:22:13;;;;;;;;;16.00;14.00;;;;;24.91;53.16;100498.44;5072583;28;45402;-84
2022/07/25 00:24:38;;;;;;;;;16.25;13.75;;;;;24.77;52.92;100481.81;5073704;27;45328;-84
2022/07/25 00:27:04;;;;;;;;;15.50;13.75;;;;;24.90;52.95;100511.00;5072399;27;46960;-85
2022/07/25 00:29:29;;;;;;;;;14.75;14.75;;;;;24.66;53.14;100469.53;5073344;27;45469;-84
2022/07/25 00:31:54;;;;;;;;;14.75;14.25;;;;;24.79;53.37;100493.41;5072077;28;45503;-84
2022/07/25 00:34:20;;;;;;;;;12.25;12.25;;;;;24.66;53.76;100477.59;5071728;28;45356;-84
2022/07/25 00:36:45;;;;;;;;;14.50;14.00;;;;;24.76;53.63;100491.69;5073139;27;46353;-84
2022/07/25 00:39:11;;;;;;;;;13.25;13.25;;;;;24.69;53.45;100476.66;5073387;27;45448;-84
2022/07/25 00:41:36;;;;;;;;;14.50;13.00;;;;;24.65;53.26;100464.22;5073464;27;45402;-84
2022/07/25 00:44:02;;;;;;;;;14.25;14.25;;;;;24.76;53.98;100482.72;5073288;28;45587;-84
2022/07/25 00:46:27;;;;;;;;;17.50;14.50;;;;;24.57;53.54;100453.66;5072539;27;46965;-83
2022/07/25 00:48:52;;;;;;;;;15.00;14.00;;;;;24.69;53.87;100479.34;5071470;28;45516;-84
2022/07/25 00:51:18;;;;;;;;;10.50;10.25;;;;;24.55;53.68;100451.97;5073214;28;45289;-84
2022/07/25 00:53:44;;;;;;;;;14.50;13.75;;;;;24.66;54.21;100472.22;5071848;28;45496;-84
2022/07/25 00:56:09;;;;;;;;;14.25;13.50;;;;;24.52;53.81;100458.28;5072904;27;46660;-84
2022/07/25 00:58:34;;;;;;;;;14.00;13.50;;;;;24.62;54.47;100477.72;5073106;28;45290;-84
2022/07/25 01:01:01;;;;;;;;;14.75;14.25;;;;;24.60;54.22;100471.53;5073259;28;45500;-84
2022/07/25 01:03:27;;;;;;;;;13.25;12.50;;;;;24.42;54.66;100452.28;5071989;28;45587;-84
2022/07/25 01:05:52;;;;;;;;;14.50;14.50;;;;;24.59;54.43;100484.09;5075110;27;47136;-84
2022/07/25 01:08:18;;;;;;;;;11.75;11.50;;;;;24.51;54.51;100477.16;5076944;28;45448;-84
2022/07/25 01:10:45;;;;;;;;;15.00;14.00;;;;;24.58;54.59;100490.41;5075206;28;45648;-84
2022/07/25 01:13:11;;;;;;;;;13.75;13.75;;;;;24.43;53.79;100474.66;5075419;28;45527;-84
2022/07/25 01:15:36;;;;;;;;;12.25;12.25;;;;;24.53;53.54;100510.22;5076433;28;45514;-84
2022/07/25 01:18:02;;;;;;;;;13.50;13.00;;;;;24.61;53.86;100505.53;5076036;28;45436;-84
2022/07/25 01:20:29;;;;;;;;;11.50;11.50;;;;;24.63;54.40;100495.63;5076442;27;45299;-84
2022/07/25 01:22:55;;;;;;;;;13.00;11.50;;;;;24.63;53.83;100477.72;5075263;28;45561;-84
2022/07/25 01:25:21;;;;;;;;;13.00;12.25;;;;;24.76;53.40;100486.28;5076846;27;46504;-84
2022/07/25 01:27:47;;;;;;;;;17.00;14.00;;;;;24.65;53.10;100473.16;5076097;27;45307;-84
2022/07/25 01:30:14;;;;;;;;;11.50;11.50;;;;;24.84;53.09;100483.41;5074878;28;45508;-85
2022/07/25 01:32:40;;;;;;;;;13.00;12.00;;;;;24.84;53.54;100480.72;5075737;27;45534;-84
2022/07/25 01:35:07;;;;;;;;;13.50;12.00;;;;;24.70;53.35;100455.09;5075900;27;46677;-84
2022/07/25 01:37:32;;;;;;;;;14.00;14.00;;;;;24.81;52.90;100478.09;5074894;28;45743;-84
2022/07/25 01:39:57;;;;;;;;;13.00;13.00;;;;;24.80;53.11;100468.28;5076285;28;45581;-85
2022/07/25 01:42:23;;;;;;;;;11.50;11.25;;;;;24.81;53.25;100470.91;5076010;28;45589;-84
2022/07/25 01:44:48;;;;;;;;;16.25;14.25;;;;;24.90;52.79;100475.16;5075987;28;46186;-84
2022/07/25 01:47:15;;;;;;;;;14.50;12.50;;;;;24.81;52.51;100451.22;5053994;28;45485;-84
2022/07/25 01:49:42;;;;;;;;;13.00;11.00;;;;;24.94;52.61;100471.47;5054429;28;45443;-84
2022/07/25 01:52:07;;;;;;;;;12.00;11.25;;;;;24.93;52.63;100464.31;5055617;28;45229;-84
2022/07/25 01:54:32;;;;;;;;;12.50;11.50;;;;;24.89;52.21;100459.97;5055352;28;47585;-84
2022/07/25 01:56:59;;;;;;;;;10.75;10.75;;;;;24.91;51.96;100463.47;5054260;28;45323;-83
2022/07/25 01:59:25;;;;;;;;;12.00;11.00;;;;;24.84;52.05;100460.09;5054446;28;45311;-85
2022/07/25 02:01:50;;;;;;;;;13.25;12.75;;;;;24.84;52.01;100457.41;5055635;28;45294;-84
2022/07/25 02:04:16;;;;;;;;;11.50;11.25;;;;;24.78;52.06;100449.53;5053743;28;45895;-85
2022/07/25 02:06:41;;;;;;;;;14.50;13.00;;;;;24.95;51.64;100470.53;5055472;28;45362;-85
2022/07/25 02:09:07;;;;;;;;;12.25;11.25;;;;;25.00;51.86;100475.78;5054266;28;45358;-84
2022/07/25 02:11:33;;;;;;;;;12.00;12.00;;;;;24.81;51.89;100435.97;5055706;28;45431;-85
2022/07/25 02:13:58;;;;;;;;;12.00;12.00;;;;;24.87;52.31;100451.03;5055252;28;46432;-85
2022/07/25 02:16:24;;;;;;;;;13.00;12.00;;;;;24.77;51.88;100442.34;5054164;28;45384;-84
2022/07/25 02:18:49;;;;;;;;;13.50;12.75;;;;;24.69;51.98;100434.53;5055034;28;45377;-84
2022/07/25 02:21:14;;;;;;;;;11.50;10.75;;;;;24.55;52.35;100422.41;5055741;28;45273;-85
2022/07/25 02:23:41;;;;;;;;;11.00;10.00;;;;;24.68;52.61;100453.41;5055154;28;47333;-84
2022/07/25 02:26:06;;;;;;;;;13.25;13.00;;;;;24.57;53.05;100452.78;5055069;28;45899;-85
2022/07/25 02:28:32;;;;;;;;;12.00;11.75;;;;;24.50;52.58;100440.47;5055426;28;45445;-85
2022/07/25 02:30:57;;;;;;;;;9.75;8.75;;;;;24.58;52.24;100452.78;5070583;28;45687;-84
2022/07/25 02:33:22;;;;;;;;;13.00;13.00;;;;;24.50;52.06;100429.72;5053213;28;47948;-86
2022/07/25 02:35:49;;;;;;;;;11.25;11.25;;;;;24.63;52.65;100456.22;5053768;28;49710;-84
2022/07/25 02:38:18;;;;;;;;;11.50;11.25;;;;;24.75;51.86;100459.47;5055019;28;45276;-84
2022/07/25 02:40:53;;;;;;;;;12.00;11.25;;;;;24.76;51.86;100467.47;5054056;28;45474;-84
2022/07/25 02:43:19;;;;;;;;;12.25;11.75;;;;;24.63;52.43;100456.22;5053489;28;47459;-84
2022/07/25 02:45:44;;;;;;;;;11.50;11.25;;;;;24.67;51.93;100452.50;5060961;28;45971;-84
2022/07/25 02:48:10;;;;;;;;;11.50;11.00;;;;;24.60;51.92;100448.22;5074815;27;45342;-85
2022/07/25 02:50:35;;;;;;;;;11.50;11.50;;;;;24.74;52.26;100476.53;5074984;28;45527;-83
2022/07/25 02:53:01;;;;;;;;;12.00;11.75;;;;;24.61;52.16;100446.41;5074947;28;45438;-85
2022/07/25 02:55:27;;;;;;;;;12.50;11.75;;;;;24.70;51.77;100456.91;5074849;27;45827;-84
2022/07/25 02:57:52;;;;;;;;;10.00;9.50;;;;;24.64;52.27;100443.66;5074933;27;45247;-84
2022/07/25 03:00:18;;;;;;;;;12.00;11.00;;;;;24.45;51.46;100414.59;5075364;28;45418;-84
2022/07/25 03:02:43;;;;;;;;;11.00;10.50;;;;;24.66;51.81;100445.34;5073157;28;47456;-84
2022/07/25 03:05:11;;;;;;;;;11.75;11.00;;;;;24.72;51.12;100460.41;5074877;28;45341;-84
2022/07/25 03:07:37;;;;;;;;;12.00;12.00;;;;;24.66;51.26;100445.34;5074915;27;45312;-85
2022/07/25 03:10:04;;;;;;;;;10.00;9.00;;;;;24.81;51.01;100465.53;5073426;28;45665;-85
2022/07/25 03:12:31;;;;;;;;;8.25;8.00;;;;;24.78;51.31;100465.66;5074573;28;46319;-84
2022/07/25 03:14:57;;;;;;;;;10.00;10.00;;;;;24.68;52.09;100448.91;5074540;27;45275;-83
2022/07/25 03:17:22;;;;;;;;;10.25;9.00;;;;;24.67;51.29;100447.09;5074113;27;45425;-82
2022/07/25 03:19:48;;;;;;;;;10.25;10.25;;;;;24.72;51.34;100471.19;5074621;27;45484;-83
2022/07/25 03:22:13;;;;;;;;;8.75;8.25;;;;;24.63;50.46;100453.53;5074316;28;46226;-84
2022/07/25 03:24:38;;;;;;;;;8.00;7.25;;;;;24.61;50.59;100458.03;5074486;28;45330;-84
2022/07/25 03:27:04;;;;;;;;;9.25;9.25;;;;;24.77;51.23;100485.38;5074604;28;45490;-83
2022/07/25 03:29:29;;;;;;;;;9.50;8.75;;;;;24.61;50.42;100463.41;5074195;28;45614;-83
2022/07/25 03:31:54;;;;;;;;;7.00;7.00;;;;;24.70;50.22;100479.28;5074061;28;45817;-84
2022/07/25 03:34:20;;;;;;;;;5.75;5.75;;;;;24.47;49.57;100454.84;5074306;27;45638;-84
2022/07/25 03:36:45;;;;;;;;;6.00;6.00;;;;;24.54;48.94;100472.59;5074214;27;45267;-84
2022/07/25 03:39:11;;;;;;;;;5.00;5.00;;;;;24.54;48.49;100482.44;5074324;27;45243;-83
2022/07/25 03:41:36;;;;;;;;;4.00;4.00;;;;;24.55;48.45;100493.16;5072759;28;46815;-84
2022/07/25 03:44:01;;;;;;;;;5.75;5.25;;;;;24.54;48.54;100503.94;5074219;27;45468;-84
2022/07/25 03:46:27;;;;;;;;;4.00;4.00;;;;;24.40;47.75;100481.00;5074020;28;45401;-84
2022/07/25 03:48:54;;;;;;;;;4.00;4.00;;;;;24.36;48.21;100483.81;5073824;28;45388;-83
2022/07/25 03:51:19;;;;;;;;;4.00;4.00;;;;;24.47;47.92;100507.72;5073794;28;45400;-83
2022/07/25 03:54:03;;;;;;;;;3.00;3.00;;;;;24.29;48.08;100484.88;5073999;28;45380;-83
2022/07/25 03:56:37;;;;;;;;;5.25;4.50;;;;;24.44;47.42;100516.75;5074191;28;45368;-83
2022/07/25 03:59:06;;;;;;;;;4.00;4.00;;;;;24.25;46.96;100494.81;5074122;27;45382;-83
2022/07/25 04:01:33;;;;;;;;;2.00;2.00;;;;;24.28;46.39;100510.81;5073817;27;46606;-83
2022/07/25 04:03:59;;;;;;;;;2.00;1.75;;;;;24.17;46.40;100502.16;5073305;27;45424;-84
2022/07/25 04:06:25;;;;;;;;;3.00;3.00;;;;;24.12;46.17;100499.59;5073046;28;45691;-83
2022/07/25 04:08:52;;;;;;;;;3.00;3.00;;;;;24.08;45.92;100503.28;5072435;27;45303;-83
2022/07/25 04:11:17;;;;;;;;;3.00;3.00;;;;;24.08;46.07;100516.69;5073643;27;46217;-83
2022/07/25 04:13:43;;;;;;;;;2.25;2.25;;;;;24.06;46.49;100509.63;5073966;27;45658;-85
2022/07/25 04:16:08;;;;;;;;;2.00;2.00;;;;;24.06;46.07;100518.56;5073847;27;45379;-83
2022/07/25 04:18:34;;;;;;;;;2.00;2.00;;;;;24.19;45.54;100529.88;5072060;28;45703;-84
2022/07/25 04:20:59;;;;;;;;;2.00;2.00;;;;;24.10;45.62;100522.94;5073678;28;46388;-84
2022/07/25 04:23:26;;;;;;;;;2.00;2.00;;;;;24.14;46.09;100526.44;5073772;28;45393;-83
2022/07/25 04:25:51;;;;;;;;;3.50;2.75;;;;;23.98;45.30;100504.41;5073730;28;45494;-83
2022/07/25 04:28:16;;;;;;;;;4.00;3.25;;;;;24.07;45.69;100524.81;5073573;28;45345;-83
2022/07/25 04:30:44;;;;;;;;;2.75;2.00;;;;;24.07;45.70;100530.16;5073223;28;46193;-84
2022/07/25 04:33:10;;;;;;;;;1.25;1.25;;;;;23.96;45.86;100521.50;5072858;28;45535;-82
2022/07/25 04:35:35;;;;;;;;;4.00;2.00;;;;;23.96;45.68;100525.06;5073516;28;45301;-84
2022/07/25 04:38:01;;;;;;;;;4.00;3.00;;;;;23.96;46.49;100535.81;5073876;27;45457;-84
2022/07/25 04:40:26;;;;;;;;;3.50;3.00;;;;;23.93;46.99;100535.88;5075186;28;46850;-84
2022/07/25 04:42:51;;;;;;;;;1.25;1.25;;;;;23.80;47.00;100523.69;5076994;28;45370;-84
2022/07/25 04:45:17;;;;;;;;;2.00;1.50;;;;;23.94;47.14;100553.75;5077347;28;45349;-84
2022/07/25 04:47:42;;;;;;;;;2.00;2.00;;;;;23.86;47.19;100545.00;5075320;27;45375;-83
2022/07/25 04:50:08;;;;;;;;;1.00;1.00;;;;;23.88;47.61;100551.19;5077253;28;46270;-83
2022/07/25 04:52:34;;;;;;;;;2.50;2.25;;;;;23.92;47.71;100558.28;5077429;27;45577;-84
2022/07/25 04:54:59;;;;;;;;;3.00;2.00;;;;;23.82;48.20;100551.34;5075371;28;45439;-84
2022/07/25 04:57:24;;;;;;;;;1.25;1.25;;;;;23.80;48.79;100554.06;5076925;27;45329;-85
2022/07/25 04:59:49;;;;;;;;;1.50;1.00;;;;;23.66;48.58;100535.59;5075544;28;47866;-83
2022/07/25 05:02:15;;;;;;;;;2.25;2.00;;;;;23.64;48.77;100536.53;5076454;27;45347;-84
2022/07/25 05:04:40;;;;;;;;;2.50;2.00;;;;;23.59;49.16;100543.78;5076841;27;45376;-83
2022/07/25 05:07:06;;;;;;;;;1.75;1.75;;;;;23.61;49.66;100558.94;5076725;28;45521;-84
2022/07/25 05:09:31;;;;;;;;;2.50;2.50;;;;;23.62;49.52;100563.38;5076816;27;45648;-83
2022/07/25 05:11:56;;;;;;;;;1.00;1.00;;;;;23.56;50.16;100547.41;5076328;27;45396;-84
2022/07/25 05:14:21;;;;;;;;;2.00;1.75;;;;;23.53;50.24;100544.78;5075196;28;45400;-85
2022/07/25 05:16:47;;;;;;;;;3.25;2.25;;;;;23.64;49.79;100566.06;5076419;27;45284;-84
2022/07/25 05:19:12;;;;;;;;;2.00;2.00;;;;;23.61;50.11;100569.66;5075933;28;45467;-85
2022/07/25 05:21:37;;;;;;;;;2.00;2.00;;;;;23.54;50.18;100567.13;5076320;27;45472;-85
2022/07/25 05:24:04;;;;;;;;;1.75;1.75;;;;;23.59;50.05;100573.28;5075290;28;45359;-84
2022/07/25 05:26:29;;;;;;;;;2.50;2.50;;;;;23.51;50.19;100556.50;5076384;27;45550;-85
2022/07/25 05:28:55;;;;;;;;;2.00;2.00;;;;;23.60;50.47;100589.38;5076366;28;46480;-84
2022/07/25 05:31:20;;;;;;;;;2.25;1.75;;;;;23.49;50.63;100586.00;5076179;28;45376;-84
2022/07/25 05:33:45;;;;;;;;;2.00;1.25;;;;;23.45;50.29;100581.66;5075954;27;45310;-84
2022/07/25 05:36:11;;;;;;;;;1.75;1.00;;;;;23.42;50.86;100574.53;5076718;27;45435;-85
2022/07/25 05:38:36;;;;;;;;;2.50;2.00;;;;;23.61;50.55;100604.56;5074579;27;47312;-84
2022/07/25 05:41:02;;;;;;;;;1.00;1.00;;;;;23.53;51.06;100593.09;5076668;27;45448;-84
2022/07/25 05:43:28;;;;;;;;;3.00;2.00;;;;;23.55;51.17;100590.41;5074959;28;45476;-85
2022/07/25 05:45:59;;;;;;;;;2.00;2.00;;;;;23.55;50.74;100585.91;5075694;27;45437;-84
2022/07/25 05:48:24;;;;;;;;;1.50;1.50;;;;;23.43;51.04;100576.28;5074283;27;48473;-85
2022/07/25 05:50:50;;;;;;;;;2.75;2.25;;;;;23.54;50.36;100599.34;5076324;28;45445;-83
2022/07/25 05:53:15;;;;;;;;;2.00;2.00;;;;;23.47;50.07;100586.97;5076160;28;45308;-83
2022/07/25 05:55:40;;;;;;;;;2.75;2.75;;;;;23.34;50.94;100575.59;5076202;28;45270;-84
2022/07/25 05:58:06;;;;;;;;;3.00;2.25;;;;;23.30;50.60;100574.81;5074190;28;47357;-84
2022/07/25 06:00:31;;;;;;;;;2.50;2.00;;;;;23.28;50.79;100586.47;5075984;27;45452;-84
2022/07/25 06:02:59;;;;;;;;;2.00;2.00;;;;;23.42;50.88;100611.22;5074330;28;45473;-84
2022/07/25 06:05:24;;;;;;;;;0.75;0.75;;;;;23.28;51.20;100586.47;5075713;27;45431;-84
2022/07/25 06:07:49;;;;;;;;;2.25;2.00;;;;;23.46;51.08;100620.09;5075779;27;45892;-84
2022/07/25 06:10:15;;;;;;;;;3.00;3.00;;;;;23.37;51.28;100605.94;5075866;27;45425;-84
2022/07/25 06:12:40;;;;;;;;;3.00;2.75;;;;;23.45;50.96;100624.56;5074469;28;45641;-83
2022/07/25 06:15:06;;;;;;;;;2.75;2.25;;;;;23.39;51.85;100613.94;5074084;28;45470;-84
2022/07/25 06:17:32;;;;;;;;;2.00;2.00;;;;;23.58;51.23;100644.84;5073855;28;47504;-84
2022/07/25 06:19:57;;;;;;;;;2.00;2.00;;;;;23.59;51.26;100641.25;5074327;27;45774;-84
2022/07/25 06:22:22;;;;;;;;;2.50;2.50;;;;;23.55;51.04;100630.63;5074424;28;45331;-84
2022/07/25 06:24:48;;;;;;;;;4.00;3.50;;;;;23.47;51.33;100622.72;5074549;28;45705;-84
2022/07/25 06:27:13;;;;;;;;;3.25;3.25;;;;;23.54;51.20;100635.09;5073889;28;46247;-83
2022/07/25 06:29:38;;;;;;;;;2.00;1.75;;;;;23.58;51.22;100636.81;5075083;27;45426;-83
2022/07/25 06:32:04;;;;;;;;;2.00;2.00;;;;;23.57;50.55;100632.34;5075238;28;45547;-83
2022/07/25 06:34:29;;;;;;;;;1.75;1.75;;;;;23.61;50.69;100638.56;5075347;27;45381;-84
2022/07/25 06:36:58;;;;;;;;;1.75;1.75;;;;;23.63;50.96;100639.38;5075350;28;46742;-84
2022/07/25 06:39:24;;;;;;;;;3.00;3.00;;;;;23.73;51.75;100665.16;5075394;27;45454;-83
2022/07/25 06:41:50;;;;;;;;;4.00;3.50;;;;;23.72;51.35;100646.41;5073770;28;45412;-84
2022/07/25 06:44:15;;;;;;;;;3.50;2.50;;;;;23.70;51.27;100646.44;5073801;28;45440;-84
2022/07/25 06:46:40;;;;;;;;;3.00;2.00;;;;;23.67;51.07;100639.31;5073489;28;47017;-84
2022/07/25 06:49:06;;;;;;;;;3.00;3.00;;;;;23.69;50.83;100650.03;5074801;27;45418;-84
2022/07/25 06:51:31;;;;;;;;;3.00;3.00;;;;;23.78;51.53;100667.75;5075196;28;45408;-83
2022/07/25 06:53:57;;;;;;;;;2.00;2.00;;;;;23.72;51.06;100649.97;5073682;27;45568;-83
2022/07/25 06:56:22;;;;;;;;;3.00;2.25;;;;;23.60;51.37;100632.31;5090353;27;46642;-84
2022/07/25 06:58:47;;;;;;;;;2.50;2.50;;;;;23.71;51.36;100650.00;5074755;28;45298;-84
2022/07/25 07:01:13;;;;;;;;;2.00;2.00;;;;;23.82;51.39;100682.88;5073006;28;45666;-83
2022/07/25 07:03:39;;;;;;;;;3.25;3.25;;;;;23.80;51.01;100671.28;5073159;28;45288;-84
2022/07/25 07:06:06;;;;;;;;;4.50;4.00;;;;;23.68;50.99;100659.00;5074617;27;46351;-84
2022/07/25 07:08:31;;;;;;;;;2.75;2.50;;;;;23.75;51.59;100679.44;5073296;28;45883;-84
2022/07/25 07:10:57;;;;;;;;;3.25;2.00;;;;;23.73;51.36;100675.00;5074755;28;45307;-83
2022/07/25 07:13:22;;;;;;;;;3.50;3.00;;;;;23.56;51.26;100652.06;5073490;27;45584;-84
2022/07/25 07:15:49;;;;;;;;;3.75;3.75;;;;;23.63;51.63;100666.22;5074903;27;45725;-84
2022/07/25 07:18:16;;;;;;;;;3.00;2.00;;;;;23.81;51.80;100703.47;5072687;28;45815;-83
2022/07/25 07:20:42;;;;;;;;;4.00;3.75;;;;;23.65;51.55;100664.44;5073180;28;45486;-84
2022/07/25 07:23:08;;;;;;;;;2.00;2.00;;;;;23.75;51.74;100675.88;5073564;28;45559;-84
2022/07/25 07:25:33;;;;;;;;;3.75;2.75;;;;;23.74;51.71;100676.75;5074346;27;46334;-84
2022/07/25 07:27:59;;;;;;;;;4.00;4.00;;;;;23.79;51.23;100673.09;5073477;28;45496;-84
2022/07/25 07:30:25;;;;;;;;;2.25;2.25;;;;;23.76;52.10;100674.94;5073152;28;45464;-84
2022/07/25 07:32:50;;;;;;;;;2.50;2.00;;;;;23.84;52.09;100689.06;5074163;28;45441;-84
2022/07/25 07:35:17;;;;;;;;;3.00;3.00;;;;;23.78;52.09;100670.44;5074545;28;45660;-84
2022/07/25 07:37:43;;;;;;;;;3.00;3.00;;;;;23.92;51.69;100693.38;5074505;27;45733;-84
2022/07/25 07:40:09;;;;;;;;;3.50;3.50;;;;;23.96;51.81;100690.63;5072706;27;45427;-83
2022/07/25 07:42:43;;;;;;;;;2.00;2.00;;;;;23.94;52.08;100693.38;5072860;28;45592;-84
2022/07/25 07:45:15;;;;;;;;;3.00;3.00;;;;;24.12;51.59;100716.22;5073922;27;46403;-83
2022/07/25 07:47:40;;;;;;;;;2.25;2.25;;;;;24.09;51.43;100709.16;5073827;28;45338;-84
2022/07/25 07:50:07;;;;;;;;;2.00;2.00;;;;;23.99;51.47;100686.09;5073314;28;45508;-84
2022/07/25 07:52:32;;;;;;;;;3.00;3.00;;;;;24.05;51.63;100703.88;5072995;28;45605;-84
2022/07/25 07:57:42;;;;;;;;;2.25;2.00;;;;;24.13;51.52;100721.56;5074150;28;46050;-84
2022/07/25 08:00:08;;;;;;;;;4.00;4.00;;;;;24.08;51.40;100715.41;5074202;27;45440;-85
2022/07/25 08:02:41;;;;;;;;;3.25;2.50;;;;;24.21;52.11;100729.47;5073380;27;45442;-85
2022/07/25 08:05:10;;;;;;;;;3.50;3.25;;;;;24.26;51.78;100732.06;5072520;28;47183;-83
2022/07/25 08:07:35;;;;;;;;;2.00;2.00;;;;;24.09;51.10;100690.34;5073737;27;45402;-84
2022/07/25 08:10:01;;;;;;;;;3.00;3.00;;;;;24.18;51.91;100702.66;5072611;28;45519;-84
2022/07/25 08:12:26;;;;;;;;;3.00;3.00;;;;;24.22;51.26;100708.88;5072368;28;45453;-83
2022/07/25 08:14:51;;;;;;;;;2.50;2.00;;;;;24.37;51.01;100720.19;5072649;27;45339;-84
2022/07/25 08:17:17;;;;;;;;;1.75;1.75;;;;;24.37;51.37;100724.66;5071990;28;46688;-84
2022/07/25 08:19:42;;;;;;;;;1.00;1.00;;;;;24.41;51.08;100734.44;5073506;27;45292;-83
2022/07/25 08:22:08;;;;;;;;;2.00;2.00;;;;;24.38;51.13;100723.75;5073587;27;45351;-84
2022/07/25 08:24:33;;;;;;;;;4.00;3.00;;;;;24.37;50.85;100716.59;5072032;28;46371;-83
2022/07/25 08:26:58;;;;;;;;;2.00;2.00;;;;;24.29;50.53;100708.69;5072153;27;45441;-84
2022/07/25 08:29:24;;;;;;;;;1.25;1.25;;;;;24.36;50.87;100725.59;5073950;28;45429;-84
2022/07/25 08:31:49;;;;;;;;;3.00;2.25;;;;;24.38;50.96;100719.28;5073447;28;48946;-83
2022/07/25 08:34:14;;;;;;;;;0.00;0.00;;;;;24.43;50.96;100721.84;5073078;28;45659;-84
2022/07/25 08:36:39;;;;;;;;;2.75;2.75;;;;;24.49;51.25;100723.53;5073442;27;45264;-84
2022/07/25 08:39:05;;;;;;;;;3.50;3.50;;;;;24.53;50.73;100718.03;5073981;27;45460;-84
2022/07/25 08:41:32;;;;;;;;;2.25;2.00;;;;;24.56;50.94;100736.75;5072190;28;45600;-84
2022/07/25 08:43:59;;;;;;;;;2.00;2.00;;;;;24.63;50.67;100741.09;5073273;27;45499;-84
2022/07/25 08:46:26;;;;;;;;;2.00;2.00;;;;;24.71;50.41;100740.91;5071660;28;45821;-84
2022/07/25 08:48:52;;;;;;;;;2.00;2.00;;;;;24.69;50.54;100724.81;5073232;28;45511;-84
2022/07/25 08:51:18;;;;;;;;;1.00;1.00;;;;;24.68;50.72;100728.44;5072003;28;45408;-83
2022/07/25 08:53:43;;;;;;;;;2.25;2.25;;;;;24.79;51.26;100730.84;5073452;27;46532;-83
2022/07/25 08:56:09;;;;;;;;;2.25;2.25;;;;;24.84;50.63;100728.06;5073416;27;45419;-84
2022/07/25 08:58:34;;;;;;;;;1.75;1.75;;;;;25.05;50.87;100734.69;5071802;28;45410;-84
2022/07/25 09:00:59;;;;;;;;;2.00;2.00;;;;;25.28;50.11;100744.91;5073283;27;45581;-84
2022/07/25 09:03:26;;;;;;;;;1.25;1.25;;;;;25.42;50.09;100754.41;5071603;28;47021;-84
2022/07/25 09:05:51;;;;;;;;;2.00;1.50;;;;;25.41;49.42;100754.41;5072871;27;45430;-84
2022/07/25 09:08:17;;;;;;;;;1.00;1.00;;;;;25.39;49.90;100753.56;5073270;28;45302;-84
2022/07/25 09:10:48;;;;;;;;;2.50;2.00;;;;;25.61;49.99;100765.53;5073428;28;45407;-85
2022/07/25 09:13:13;;;;;;;;;3.00;3.00;;;;;25.81;49.43;100750.66;5071535;28;47205;-83
2022/07/25 09:15:52;;;;;;;;;2.25;2.25;;;;;26.03;48.61;100757.22;5073122;27;45376;-84
2022/07/25 09:18:22;;;;;;;;;2.25;2.25;;;;;26.19;48.72;100769.28;5073085;27;45486;-84
2022/07/25 09:20:53;;;;;;;;;2.75;2.75;;;;;26.38;48.20;100768.75;5071234;28;45494;-84
2022/07/25 09:23:36;;;;;;;;;2.25;2.00;;;;;26.45;47.98;100756.88;5071569;28;47662;-84
2022/07/25 09:26:07;;;;;;;;;2.25;2.00;;;;;26.61;47.38;100770.78;5073884;27;45512;-84
2022/07/25 09:28:40;;;;;;;;;2.00;2.00;;;;;26.43;47.38;100761.44;5074990;28;45682;-85
2022/07/25 09:31:06;;;;;;;;;3.00;3.00;;;;;26.35;47.89;100758.94;5075023;28;45753;-84
2022/07/25 09:33:31;;;;;;;;;3.50;3.50;;;;;26.40;47.65;100753.41;5075705;28;45421;-84
2022/07/25 09:35:57;;;;;;;;;2.25;2.25;;;;;26.59;48.24;100756.47;5076122;27;45495;-84
2022/07/25 09:38:23;;;;;;;;;2.00;2.00;;;;;26.78;47.63;100762.16;5076947;28;45535;-84
2022/07/25 09:41:00;;;;;;;;;3.50;3.50;;;;;26.84;47.01;100765.53;5075969;27;45453;-84
2022/07/25 09:43:40;;;;;;;;;1.50;1.50;;;;;26.97;46.77;100774.13;5076015;27;46529;-85
2022/07/25 09:46:07;;;;;;;;;3.00;3.00;;;;;26.95;46.46;100765.19;5074272;28;45368;-85
2022/07/25 09:48:34;;;;;;;;;2.75;1.00;;;;;27.05;46.14;100790.94;5074413;28;45424;-84
2022/07/25 09:50:59;;;;;;;;;3.00;3.00;;;;;26.99;46.30;100786.63;5074754;27;45476;-84
2022/07/25 09:53:25;;;;;;;;;4.75;3.00;;;;;27.12;46.71;100791.66;5075732;28;45381;-84
2022/07/25 09:55:55;;;;;;;;;2.00;2.00;;;;;27.07;46.48;100780.97;5075976;27;45310;-85
2022/07/25 09:58:22;;;;;;;;;2.50;2.25;;;;;27.19;45.74;100788.72;5076006;27;45501;-85
2022/07/25 10:00:48;;;;;;;;;3.00;3.00;;;;;27.24;46.00;100778.63;5075831;27;45498;-84
2022/07/25 10:03:29;;;;;;;;;3.00;2.50;;;;;27.32;45.50;100782.88;5075634;28;46257;-83
2022/07/25 10:06:06;;;;;;;;;2.00;2.00;;;;;27.35;45.54;100791.75;5074255;28;45938;-85
2022/07/25 10:08:40;;;;;;;;;5.25;3.00;;;;;27.23;45.51;100794.88;5075893;27;45317;-85
2022/07/25 10:11:20;;;;;;;;;2.00;2.00;;;;;27.11;45.92;100790.78;5075984;27;45541;-84
2022/07/25 10:13:46;;;;;;;;;3.00;2.75;;;;;27.05;45.55;100788.25;5075579;28;46620;-84
2022/07/25 10:16:17;;;;;;;;;5.00;3.00;;;;;27.05;45.97;100788.25;5074090;28;45559;-83
2022/07/25 10:18:48;;;;;;;;;2.00;2.00;;;;;27.05;45.40;100773.88;5075342;27;45313;-83
2022/07/25 10:21:14;;;;;;;;;3.75;2.75;;;;;27.08;45.85;100788.16;5074238;28;45470;-84
2022/07/25 10:23:39;;;;;;;;;2.25;2.25;;;;;27.09;45.63;100784.53;5074025;27;47370;-85
2022/07/25 10:26:14;;;;;;;;;3.00;2.00;;;;;27.16;45.68;100783.41;5073855;28;46027;-84
2022/07/25 10:28:49;;;;;;;;;2.00;2.00;;;;;27.21;45.76;100777.84;5075664;27;45580;-85
2022/07/25 10:31:44;;;;;;;;;2.00;2.00;;;;;27.27;45.82;100799.22;5074115;27;45600;-84
2022/07/25 10:34:12;;;;;;;;;2.00;2.00;;;;;27.25;45.66;100806.50;5060215;28;47918;-85
2022/07/25 10:36:41;;;;;;;;;2.75;2.75;;;;;27.19;45.68;100807.59;5073016;28;45818;-84
2022/07/25 10:39:08;;;;;;;;;2.75;2.75;;;;;26.97;45.96;100775.00;5074275;28;45690;-84
2022/07/25 10:41:38;;;;;;;;;2.75;2.75;;;;;27.07;46.03;100801.69;5073802;27;45530;-84
2022/07/25 10:44:13;;;;;;;;;2.00;2.00;;;;;27.13;46.03;100810.47;5074853;27;45546;-84
2022/07/25 10:46:39;;;;;;;;;3.00;3.00;;;;;27.00;46.39;100814.50;5074794;27;45302;-85
2022/07/25 10:49:06;;;;;;;;;2.50;2.50;;;;;26.92;46.01;100813.84;5074804;27;45481;-84
2022/07/25 10:51:34;;;;;;;;;2.00;2.00;;;;;26.74;46.23;100818.88;5075227;27;45335;-85
2022/07/25 10:54:14;;;;;;;;;4.00;4.00;;;;;26.36;46.74;100797.56;5073585;27;47153;-83
2022/07/25 10:56:52;;;;;;;;;2.00;2.00;;;;;26.45;46.69;100818.88;5075061;27;45447;-85
2022/07/25 10:59:36;;;;;;;;;1.25;1.25;;;;;26.49;46.70;100826.81;5073955;27;45450;-84
2022/07/25 11:02:03;;;;;;;;;1.00;1.00;;;;;26.44;46.80;100815.28;5074840;28;45484;-84
2022/07/25 11:04:29;;;;;;;;;2.25;2.25;;;;;26.49;46.83;100807.06;5074255;27;46586;-84
2022/07/25 11:06:55;;;;;;;;;3.00;2.00;;;;;26.52;46.68;100784.56;5074470;27;45492;-84
2022/07/25 11:09:22;;;;;;;;;2.00;2.00;;;;;26.90;46.44;100827.38;5073534;27;45418;-84
2022/07/25 11:11:50;;;;;;;;;2.50;2.50;;;;;27.10;46.08;100839.41;5074842;28;45601;-84
2022/07/25 11:14:24;;;;;;;;;2.75;2.00;;;;;27.22;46.16;100839.88;5074640;27;46623;-84
2022/07/25 11:16:52;;;;;;;;;2.00;2.00;;;;;27.26;45.72;100832.56;5074920;27;46079;-83
2022/07/25 11:19:20;;;;;;;;;1.25;1.25;;;;;27.22;45.52;100818.28;5073178;28;45479;-84
2022/07/25 11:21:51;;;;;;;;;1.25;1.25;;;;;27.23;45.62;100822.72;5074633;27;45531;-84